Time;durP1;ratioP1;P1;durP2;ratioP2;P2;SDS_P1;SDS_P2;PMS_P1;PMS_P2;Temp;Humidity;BMP_temperature;BMP_pressure;BME280_temperature;BME280_humidity;BME280_pressure;Samples;Min_cycle;Max_cycle;Signal;HPM_P1;HPM_P2
2023/01/05 00:02:22;;;;;;;4.50;2.90;;;;;;;7.37;87.99;98885.08;208432;1288;142140;-67
2023/01/05 00:07:27;;;;;;;4.00;2.40;;;;;;;7.42;88.12;98881.42;208107;1294;140801;-68
2023/01/05 00:23:14;;;;;;;3.20;2.30;;;;;;;7.58;88.12;98846.90;210367;1295;140115;-67
2023/01/05 00:28:16;;;;;;;2.90;2.70;;;;;;;7.62;88.30;98835.63;210068;1290;140389;-67
2023/01/05 00:33:20;;;;;;;2.20;1.90;;;;;;;7.66;88.20;98836.70;209140;1287;142410;-67
2023/01/05 00:38:22;;;;;;;3.80;2.10;;;;;;;7.70;88.21;98834.33;210415;1294;142419;-68
2023/01/05 00:43:25;;;;;;;2.30;1.70;;;;;;;7.73;87.89;98825.09;210062;1287;139922;-68
2023/01/05 00:48:29;;;;;;;4.40;3.20;;;;;;;7.73;88.05;98817.56;207759;1282;139819;-67
2023/01/05 00:53:32;;;;;;;2.30;2.00;;;;;;;7.75;88.08;98823.48;209267;1288;140639;-67
2023/01/05 00:58:35;;;;;;;4.90;3.00;;;;;;;7.75;88.21;98824.39;209558;1297;141839;-68
2023/01/05 01:03:39;;;;;;;2.90;2.00;;;;;;;7.76;88.22;98808.86;208716;1295;139902;-67
2023/01/05 01:08:42;;;;;;;2.60;2.00;;;;;;;7.78;88.11;98797.70;207975;1288;140503;-67
2023/01/05 01:13:46;;;;;;;2.60;2.40;;;;;;;7.79;87.99;98799.52;208304;1294;140265;-67
2023/01/05 01:18:50;;;;;;;3.90;2.60;;;;;;;7.80;88.07;98791.59;208431;1294;139714;-67
2023/01/05 01:23:56;;;;;;;4.30;2.30;;;;;;;7.77;87.90;98781.88;207866;1295;141229;-66
2023/01/05 01:29:00;;;;;;;4.40;2.00;;;;;;;7.73;88.40;98770.77;208729;1295;140383;-66
2023/01/05 01:34:05;;;;;;;4.40;2.30;;;;;;;7.70;88.42;98773.36;208367;1295;139875;-67
2023/01/05 01:39:09;;;;;;;4.40;3.00;;;;;;;7.69;88.54;98778.92;207658;1288;140622;-66
2023/01/05 01:44:46;;;;;;;2.70;2.50;;;;;;;7.72;88.64;98763.64;208564;1287;140424;-66
2023/01/05 01:49:53;;;;;;;3.00;2.20;;;;;;;7.79;88.46;98748.91;207866;1295;142195;-67
2023/01/05 01:54:56;;;;;;;3.20;1.80;;;;;;;7.84;88.73;98735.88;207901;1294;141348;-65
2023/01/05 02:00:05;;;;;;;1.80;1.70;;;;;;;7.85;88.53;98753.19;208547;1281;141130;-67
2023/01/05 02:05:10;;;;;;;1.60;1.50;;;;;;;7.83;88.91;98746.26;208615;1295;141153;-67
2023/01/05 02:10:20;;;;;;;6.70;3.30;;;;;;;7.87;88.78;98746.54;207711;1289;141464;-67
2023/01/05 02:15:53;;;;;;;3.40;1.40;;;;;;;7.91;88.78;98741.30;209273;1294;232977;-67
2023/01/05 02:21:06;;;;;;;1.70;1.60;;;;;;;7.93;88.93;98726.02;210303;1294;140206;-67
2023/01/05 02:26:35;;;;;;;3.00;1.90;;;;;;;8.00;88.88;98711.55;210431;1294;141077;-65
2023/01/05 02:31:43;;;;;;;1.10;1.10;;;;;;;8.07;88.74;98709.80;210353;1301;140000;-66
2023/01/05 02:36:59;;;;;;;1.30;1.20;;;;;;;8.13;88.89;98707.34;208068;1293;139808;-66
2023/01/05 02:42:11;;;;;;;0.90;0.90;;;;;;;8.16;89.01;98700.91;207544;1295;139246;-66
2023/01/05 02:47:28;;;;;;;1.70;0.80;;;;;;;8.18;89.04;98683.37;208657;1295;139796;-66
2023/01/05 02:52:41;;;;;;;1.00;0.80;;;;;;;8.15;89.00;98685.40;208625;1288;140699;-66
2023/01/05 02:57:50;;;;;;;5.50;0.90;;;;;;;8.14;88.95;98674.13;208890;1291;140609;-66
2023/01/05 03:03:00;;;;;;;0.60;0.60;;;;;;;8.08;88.73;98670.38;209079;1284;141128;-66
2023/01/05 03:08:07;;;;;;;1.60;0.60;;;;;;;8.05;88.70;98683.44;207992;1295;140741;-66
2023/01/05 03:19:34;;;;;;;0.40;0.40;;;;;;;8.05;88.66;98696.39;208145;1280;513824;-67
2023/01/05 03:40:23;;;;;;;0.80;0.80;;;;;;;7.91;88.50;98682.77;208048;1295;140203;-68
2023/01/05 03:45:40;;;;;;;1.50;0.90;;;;;;;7.84;88.82;98683.35;208491;1288;140646;-67
2023/01/05 03:50:45;;;;;;;2.40;0.50;;;;;;;7.82;88.63;98680.73;207785;1297;139725;-67
2023/01/05 03:55:49;;;;;;;0.40;0.40;;;;;;;7.81;88.69;98682.67;208696;1295;140313;-67
2023/01/05 04:00:52;;;;;;;0.40;0.30;;;;;;;7.75;88.55;98678.55;207602;1296;139800;-66
2023/01/05 04:05:55;;;;;;;1.10;0.90;;;;;;;7.73;88.58;98686.15;208743;1296;140272;-67
2023/01/05 04:11:10;;;;;;;0.50;0.50;;;;;;;7.68;88.43;98690.73;208921;1288;140663;-68
2023/01/05 04:16:13;;;;;;;0.30;0.30;;;;;;;7.65;88.60;98693.48;210205;1287;139777;-67
2023/01/05 04:21:18;;;;;;;0.40;0.40;;;;;;;7.68;88.70;98688.45;210545;1295;140610;-67
2023/01/05 04:26:20;;;;;;;0.50;0.50;;;;;;;7.71;88.78;98688.73;210362;1288;140029;-67
2023/01/05 04:31:22;;;;;;;1.10;0.20;;;;;;;7.75;88.39;98694.35;210185;1294;140314;-68
2023/01/05 04:36:26;;;;;;;1.20;1.10;;;;;;;7.81;88.46;98697.83;208993;1280;142317;-67
2023/01/05 04:41:29;;;;;;;1.20;0.80;;;;;;;7.81;88.76;98694.71;207604;1281;152108;-67
2023/01/05 04:46:34;;;;;;;0.80;0.70;;;;;;;7.84;88.57;98707.17;208734;1295;140520;-67
2023/01/05 04:51:37;;;;;;;0.50;0.50;;;;;;;7.84;88.75;98708.81;209605;1293;140995;-67
2023/01/05 04:56:40;;;;;;;1.40;0.90;;;;;;;7.85;88.27;98706.82;208388;1281;140320;-67
2023/01/05 05:01:42;;;;;;;0.60;0.60;;;;;;;7.88;88.68;98701.29;208040;1291;139518;-67
2023/01/05 05:06:45;;;;;;;3.10;1.90;;;;;;;7.85;88.89;98701.99;207536;1290;139347;-68
2023/01/05 05:11:48;;;;;;;1.40;1.30;;;;;;;7.88;88.77;98698.17;208189;1294;139917;-66
2023/01/05 05:16:51;;;;;;;1.50;1.30;;;;;;;7.90;89.01;98701.33;207560;1288;140033;-67
2023/01/05 05:21:54;;;;;;;1.70;1.20;;;;;;;7.87;88.79;98713.96;208245;1295;139158;-67
2023/01/05 05:26:57;;;;;;;1.70;1.60;;;;;;;7.87;88.88;98712.95;208151;1281;139872;-67
2023/01/05 05:31:59;;;;;;;1.60;1.20;;;;;;;7.88;88.84;98701.20;208949;1288;140233;-67
2023/01/05 05:37:03;;;;;;;4.70;1.40;;;;;;;7.88;88.88;98703.11;208200;1288;141759;-66
2023/01/05 05:42:05;;;;;;;3.10;1.10;;;;;;;7.92;88.72;98705.76;207663;1288;139241;-68
2023/01/05 05:47:08;;;;;;;1.10;1.00;;;;;;;7.95;88.73;98703.31;208106;1288;140104;-67
2023/01/05 05:52:10;;;;;;;2.50;1.20;;;;;;;7.95;88.47;98706.48;208122;1287;152318;-68
2023/01/05 05:57:13;;;;;;;2.60;1.10;;;;;;;7.95;88.59;98700.08;209041;1291;140414;-67
2023/01/05 06:02:16;;;;;;;5.60;2.10;;;;;;;7.90;88.66;98700.17;207696;1287;139833;-67
2023/01/05 06:07:19;;;;;;;6.40;2.30;;;;;;;7.88;88.49;98708.42;209952;1281;140068;-68
2023/01/05 06:12:21;;;;;;;4.20;1.40;;;;;;;7.91;88.92;98713.09;208847;1287;139930;-65
2023/01/05 06:17:23;;;;;;;3.10;1.50;;;;;;;7.92;88.50;98700.15;210362;1294;150997;-66
2023/01/05 06:22:28;;;;;;;2.50;1.40;;;;;;;8.00;88.37;98703.38;210265;1295;140863;-67
2023/01/05 06:27:32;;;;;;;2.00;1.60;;;;;;;8.02;88.40;98711.27;208627;1295;139565;-67
2023/01/05 06:32:35;;;;;;;1.50;1.40;;;;;;;8.06;87.92;98718.81;207742;1288;139558;-69
2023/01/05 06:37:39;;;;;;;3.20;1.60;;;;;;;8.08;87.98;98721.02;207817;1288;140681;-67
2023/01/05 06:42:42;;;;;;;5.50;2.20;;;;;;;8.05;88.11;98724.96;209139;1295;139276;-67
2023/01/05 06:47:44;;;;;;;2.60;1.40;;;;;;;8.07;88.02;98721.36;207573;1294;140528;-67
2023/01/05 06:52:47;;;;;;;3.30;2.00;;;;;;;8.02;88.20;98731.90;208774;1289;139979;-66
2023/01/05 06:57:53;;;;;;;6.50;4.10;;;;;;;7.99;88.22;98733.55;208718;1291;140050;-67
2023/01/05 07:03:03;;;;;;;12.90;6.90;;;;;;;7.98;88.47;98738.80;207795;1297;141868;-68
2023/01/05 07:08:06;;;;;;;4.60;3.10;;;;;;;8.00;88.39;98739.58;207693;1280;142349;-70
2023/01/05 07:13:09;;;;;;;3.50;2.60;;;;;;;8.04;88.79;98742.71;208042;1288;235361;-68
2023/01/05 07:18:11;;;;;;;7.60;3.00;;;;;;;8.04;88.52;98748.83;207764;1288;140729;-67
2023/01/05 07:23:14;;;;;;;1.90;1.70;;;;;;;8.05;88.36;98746.83;207960;1294;141389;-67
2023/01/05 07:28:17;;;;;;;3.40;1.60;;;;;;;8.08;88.06;98750.11;208969;1285;139893;-65
2023/01/05 07:33:20;;;;;;;3.30;2.00;;;;;;;8.13;88.08;98745.73;207412;1281;140327;-68
2023/01/05 07:38:23;;;;;;;2.80;1.80;;;;;;;8.16;88.06;98740.10;208645;1288;146688;-65
2023/01/05 07:43:26;;;;;;;4.10;1.70;;;;;;;8.24;87.81;98751.69;207877;1297;143601;-66
2023/01/05 07:48:29;;;;;;;5.20;1.80;;;;;;;8.33;87.55;98754.69;208151;1291;139765;-66
2023/01/05 07:53:33;;;;;;;2.30;1.50;;;;;;;8.35;87.29;98759.23;208472;1294;139653;-65
2023/01/05 07:58:46;;;;;;;2.10;1.30;;;;;;;8.41;86.94;98763.05;209128;1294;141234;-65
2023/01/05 08:03:51;;;;;;;4.00;1.90;;;;;;;8.50;86.62;98768.61;208913;1296;140875;-64
2023/01/05 08:08:56;;;;;;;2.50;1.40;;;;;;;8.60;86.36;98771.48;209251;1291;140725;-64
2023/01/05 08:14:01;;;;;;;2.90;1.10;;;;;;;8.65;85.68;98779.20;208391;1287;139735;-67
2023/01/05 08:23:38;;;;;;;3.10;1.20;;;;;;;8.81;85.57;98787.55;209962;1330;683448;-66
2023/01/05 08:28:41;;;;;;;4.10;1.70;;;;;;;8.84;85.11;98791.41;208048;1307;140350;-68
2023/01/05 08:33:44;;;;;;;1.80;1.10;;;;;;;8.90;84.95;98792.70;205341;1305;597262;-65
2023/01/05 08:38:51;;;;;;;3.40;2.20;;;;;;;8.95;84.67;98795.75;207860;1294;150564;-68
2023/01/05 08:43:57;;;;;;;3.00;2.40;;;;;;;8.99;84.71;98796.12;207768;1304;138850;-67
2023/01/05 08:49:05;;;;;;;6.40;1.50;;;;;;;9.00;84.69;98800.18;207319;1304;138583;-67
2023/01/05 08:54:09;;;;;;;4.20;2.00;;;;;;;9.01;84.56;98805.67;207141;1305;138761;-66
2023/01/05 08:59:13;;;;;;;6.40;1.90;;;;;;;9.06;84.52;98803.98;207339;1287;138856;-66
2023/01/05 09:04:19;;;;;;;4.20;2.10;;;;;;;9.18;84.52;98808.85;206373;1303;139201;-66
2023/01/05 09:09:23;;;;;;;2.20;1.40;;;;;;;9.26;83.98;98815.16;206407;1304;140674;-65
2023/01/05 09:14:28;;;;;;;3.30;2.70;;;;;;;9.26;83.97;98815.64;206402;1296;144805;-65
2023/01/05 09:19:33;;;;;;;3.20;1.90;;;;;;;9.23;83.58;98810.38;207784;1288;138215;-65
2023/01/05 09:24:38;;;;;;;3.80;1.30;;;;;;;9.17;83.41;98801.55;208007;1289;138692;-66
2023/01/05 09:29:41;;;;;;;3.20;2.00;;;;;;;9.07;83.43;98807.55;207699;1298;139797;-67
2023/01/05 09:34:45;;;;;;;3.20;1.70;;;;;;;9.01;83.31;98815.23;207476;1289;138623;-67
2023/01/05 09:39:51;;;;;;;2.00;1.30;;;;;;;9.03;83.35;98826.37;208687;1281;139571;-68
2023/01/05 09:45:02;;;;;;;2.70;1.80;;;;;;;9.06;83.30;98824.73;208236;1281;139414;-68
2023/01/05 09:50:08;;;;;;;3.30;1.50;;;;;;;9.15;83.45;98822.42;209386;1298;139583;-67
2023/01/05 09:55:18;;;;;;;3.20;1.90;;;;;;;9.29;82.90;98818.23;209484;1298;139771;-65
2023/01/05 10:00:24;;;;;;;3.10;1.60;;;;;;;9.38;82.85;98813.98;209490;1289;140578;-65
2023/01/05 10:05:29;;;;;;;6.90;2.70;;;;;;;9.44;82.31;98815.02;210440;1298;138771;-66
2023/01/05 10:13:01;;;;;;;3.80;1.90;;;;;;;9.43;82.05;98811.74;210320;1289;140969;-65
2023/01/05 10:16:16;;;;;;;3.00;1.80;;;;;;;9.30;81.70;98808.45;210323;1293;139457;-65
2023/01/05 10:21:54;;;;;;;2.50;0.90;;;;;;;9.24;81.44;98810.40;209762;1299;140094;-66
2023/01/05 10:27:16;;;;;;;3.30;1.70;;;;;;;9.24;81.12;98808.59;210317;1291;376783;-67
2023/01/05 10:32:57;;;;;;;5.20;1.20;;;;;;;9.26;80.94;98809.27;209231;1291;244279;-66
2023/01/05 10:38:38;;;;;;;2.00;1.30;;;;;;;9.32;80.82;98809.60;208240;1283;141020;-67
2023/01/05 10:43:52;;;;;;;1.50;1.10;;;;;;;9.34;80.82;98814.36;209286;1284;138696;-66
2023/01/05 10:48:58;;;;;;;3.60;1.20;;;;;;;9.37;80.35;98816.37;209636;1285;138952;-65
2023/01/05 10:54:03;;;;;;;4.40;1.70;;;;;;;9.44;80.19;98815.64;208725;1278;139796;-65
2023/01/05 10:59:10;;;;;;;3.40;1.20;;;;;;;9.69;80.42;98810.63;207989;1283;139008;-65
2023/01/05 11:04:18;;;;;;;3.30;1.30;;;;;;;10.01;80.18;98800.70;209130;1278;139499;-67
2023/01/05 11:09:44;;;;;;;1.70;1.60;;;;;;;10.19;79.89;98798.83;208616;1278;142421;-68
2023/01/05 11:14:52;;;;;;;1.60;1.10;;;;;;;10.35;79.44;98809.64;208672;1291;138990;-67
2023/01/05 11:20:04;;;;;;;3.70;1.70;;;;;;;10.51;79.01;98807.02;208629;1285;141973;-67
2023/01/05 11:25:23;;;;;;;2.30;1.50;;;;;;;10.53;78.38;98811.34;208582;1278;139423;-68
2023/01/05 11:30:28;;;;;;;7.40;1.40;;;;;;;10.39;77.78;98815.98;208769;1286;139794;-65
2023/01/05 11:35:36;;;;;;;1.40;0.90;;;;;;;10.42;77.88;98822.29;208278;1288;231434;-67
2023/01/05 11:40:42;;;;;;;2.20;1.40;;;;;;;10.52;77.89;98833.19;208874;1291;139547;-66
2023/01/05 11:45:50;;;;;;;2.00;1.00;;;;;;;10.45;77.18;98835.70;208614;1285;140949;-68
2023/01/05 11:50:57;;;;;;;5.20;1.60;;;;;;;10.13;76.65;98845.48;209041;1283;139466;-68
2023/01/05 11:56:23;;;;;;;4.50;1.90;;;;;;;9.92;76.51;98837.84;208322;1283;139099;-68
2023/01/05 12:01:53;;;;;;;3.20;1.40;;;;;;;9.75;76.78;98836.55;210225;1292;138705;-66
2023/01/05 12:07:07;;;;;;;2.00;1.90;;;;;;;9.67;76.87;98838.77;210900;1289;140086;-68
2023/01/05 12:12:34;;;;;;;1.80;1.20;;;;;;;9.68;76.87;98854.90;210981;1285;139605;-67
2023/01/05 12:18:02;;;;;;;8.10;2.00;;;;;;;9.59;76.67;98857.77;211001;1292;139062;-68
2023/01/05 12:23:40;;;;;;;2.10;1.80;;;;;;;9.47;76.62;98850.25;210879;1291;138977;-68
2023/01/05 12:29:22;;;;;;;1.90;1.60;;;;;;;9.42;76.27;98853.66;208620;1285;140829;-67
2023/01/05 12:35:03;;;;;;;6.60;2.60;;;;;;;9.32;75.63;98858.73;209110;1289;243531;-65
2023/01/05 12:40:22;;;;;;;3.10;0.80;;;;;;;9.17;75.52;98852.23;209100;1278;141861;-67
2023/01/05 12:45:38;;;;;;;2.20;1.40;;;;;;;9.09;75.66;98848.27;208802;1279;139973;-67
2023/01/05 12:51:03;;;;;;;5.10;1.40;;;;;;;8.97;75.62;98843.09;208193;1285;140032;-67
2023/01/05 12:56:20;;;;;;;2.10;1.30;;;;;;;8.86;75.29;98842.73;208176;1286;139437;-67
2023/01/05 13:01:28;;;;;;;6.10;2.00;;;;;;;8.73;75.13;98844.10;207922;1282;139305;-67
2023/01/05 13:06:38;;;;;;;4.90;1.80;;;;;;;8.61;75.06;98850.04;208124;1285;205259;-68
2023/01/05 13:12:03;;;;;;;1.10;0.50;;;;;;;8.51;75.20;98849.99;208138;1283;139435;-66
2023/01/05 13:17:22;;;;;;;2.20;1.50;;;;;;;8.41;74.98;98860.47;208579;1286;139212;-66
2023/01/05 13:22:29;;;;;;;2.60;1.60;;;;;;;8.38;75.20;98858.81;208313;1283;138633;-67
2023/01/05 13:27:33;;;;;;;1.90;0.90;;;;;;;8.37;75.18;98859.07;208303;1283;138745;-67
2023/01/05 13:33:03;;;;;;;1.40;1.10;;;;;;;8.29;74.64;98864.11;209131;1298;139004;-66
2023/01/05 13:38:44;;;;;;;1.50;1.40;;;;;;;8.25;74.69;98862.52;208259;1291;139757;-66
2023/01/05 13:44:01;;;;;;;2.90;0.90;;;;;;;8.13;74.82;98875.84;210094;1299;140099;-66
2023/01/05 13:49:14;;;;;;;1.30;1.00;;;;;;;8.06;75.09;98884.68;208678;1283;139048;-65
2023/01/05 13:54:39;;;;;;;2.20;1.70;;;;;;;7.95;75.00;98887.54;209822;1298;139055;-66
2023/01/05 14:00:19;;;;;;;1.40;1.10;;;;;;;7.82;75.50;98893.92;210799;1292;244975;-67
2023/01/05 14:05:33;;;;;;;2.60;0.70;;;;;;;7.75;75.35;98894.38;210974;1291;139142;-67
2023/01/05 14:10:36;;;;;;;1.10;0.60;;;;;;;7.72;75.50;98903.02;210958;1292;138985;-67
2023/01/05 14:15:42;;;;;;;3.40;1.70;;;;;;;7.66;75.60;98914.73;211119;1290;139231;-67
2023/01/05 14:20:50;;;;;;;4.00;1.10;;;;;;;7.61;75.71;98913.21;209075;1283;139587;-66
2023/01/05 14:25:58;;;;;;;1.40;1.30;;;;;;;7.64;75.74;98926.48;210256;1297;221725;-67
2023/01/05 14:31:13;;;;;;;2.40;1.40;;;;;;;7.60;75.71;98933.20;209578;1291;138914;-66
2023/01/05 14:36:40;;;;;;;2.00;0.70;;;;;;;7.52;75.93;98940.40;209107;1283;140214;-65
2023/01/05 14:42:01;;;;;;;1.20;1.10;;;;;;;7.50;75.46;98951.75;209415;1286;141031;-68
2023/01/05 14:47:04;;;;;;;4.50;2.80;;;;;;;7.45;75.92;98954.98;208489;1282;139271;-66
2023/01/05 14:52:38;;;;;;;4.90;1.50;;;;;;;7.43;75.74;98959.13;207886;1286;245119;-66
2023/01/05 14:57:53;;;;;;;3.00;0.90;;;;;;;7.39;76.12;98970.83;208271;1286;141356;-69
2023/01/05 15:03:17;;;;;;;3.90;1.70;;;;;;;7.30;76.14;98972.27;208195;1287;138523;-67
2023/01/05 15:09:00;;;;;;;5.10;1.10;;;;;;;7.20;76.45;98979.42;207646;1285;143967;-64
2023/01/05 15:14:30;;;;;;;3.30;2.00;;;;;;;7.16;76.78;98983.61;207922;1278;236484;-68
2023/01/05 15:19:52;;;;;;;1.80;1.00;;;;;;;7.09;76.79;98991.27;207824;1284;138479;-63
2023/01/05 15:25:25;;;;;;;1.40;1.30;;;;;;;7.05;76.91;98997.27;208821;1291;139247;-68
2023/01/05 15:30:41;;;;;;;2.30;1.20;;;;;;;7.01;77.19;98999.61;207694;1286;140475;-67
2023/01/05 15:35:52;;;;;;;3.00;1.40;;;;;;;6.99;77.02;99007.11;208876;1285;139716;-67
2023/01/05 15:41:10;;;;;;;7.70;4.10;;;;;;;7.04;77.32;99005.98;209293;1285;140037;-65
2023/01/05 15:46:19;;;;;;;5.20;4.00;;;;;;;7.00;77.23;99012.11;208186;1292;138838;-64
2023/01/05 15:51:27;;;;;;;8.30;4.10;;;;;;;6.97;77.49;99021.94;210508;1286;140563;-67
2023/01/05 15:56:34;;;;;;;2.30;2.00;;;;;;;6.96;77.17;99034.14;210450;1293;140486;-68
2023/01/05 16:01:37;;;;;;;2.50;2.40;;;;;;;6.93;77.51;99054.85;210615;1292;140174;-69
2023/01/05 16:06:45;;;;;;;4.10;1.70;;;;;;;6.86;77.84;99079.41;210683;1294;139944;-68
2023/01/05 16:11:52;;;;;;;3.50;2.50;;;;;;;6.71;78.06;99099.42;210612;1295;140589;-68
2023/01/05 16:17:06;;;;;;;1.60;1.50;;;;;;;6.58;78.37;99124.52;210630;1294;142609;-68
2023/01/05 16:22:25;;;;;;;3.60;1.90;;;;;;;6.49;78.62;99137.65;210432;1295;139046;-68
2023/01/05 16:27:38;;;;;;;4.80;3.30;;;;;;;6.39;78.95;99149.62;208219;1284;140086;-66
2023/01/05 16:32:41;;;;;;;9.50;5.10;;;;;;;6.27;78.95;99158.35;208450;1285;139277;-67
2023/01/05 16:37:45;;;;;;;15.80;5.60;;;;;;;6.08;78.66;99172.36;209498;1292;138824;-66
2023/01/05 16:42:49;;;;;;;2.90;1.60;;;;;;;5.88;78.81;99187.92;208197;1292;140340;-66
2023/01/05 16:47:52;;;;;;;2.90;0.80;;;;;;;5.74;78.60;99205.48;208159;1284;138952;-65
2023/01/05 16:53:03;;;;;;;0.90;0.80;;;;;;;5.64;78.63;99222.61;208676;1292;139149;-66
2023/01/05 16:58:28;;;;;;;1.20;1.10;;;;;;;5.57;78.81;99234.61;207881;1284;139917;-67
2023/01/05 17:03:31;;;;;;;3.20;1.60;;;;;;;5.44;78.90;99251.63;207719;1293;139081;-68
2023/01/05 17:08:37;;;;;;;2.90;1.80;;;;;;;5.24;78.90;99256.59;208204;1284;139490;-67
2023/01/05 17:14:00;;;;;;;1.40;1.30;;;;;;;5.14;78.68;99275.70;207943;1284;138951;-69
2023/01/05 17:19:18;;;;;;;2.30;1.20;;;;;;;5.05;78.90;99280.22;208838;1301;139245;-69
2023/01/05 17:24:22;;;;;;;21.20;7.20;;;;;;;4.94;78.44;99293.06;207867;1288;139185;-65
2023/01/05 17:29:28;;;;;;;18.90;7.00;;;;;;;4.83;78.49;99304.77;207861;1294;139898;-66
2023/01/05 17:34:33;;;;;;;8.30;4.00;;;;;;;4.77;78.83;99320.02;208591;1293;141150;-66
2023/01/05 17:39:39;;;;;;;3.40;2.10;;;;;;;4.75;78.71;99328.42;207997;1292;139160;-63
2023/01/05 17:44:41;;;;;;;2.40;2.20;;;;;;;4.73;78.97;99342.12;208169;1292;140359;-62
2023/01/05 17:49:44;;;;;;;5.40;2.70;;;;;;;4.71;78.96;99352.96;209931;1295;140554;-67
2023/01/05 17:54:47;;;;;;;5.20;1.80;;;;;;;4.73;78.81;99362.95;209394;1295;139444;-68
2023/01/05 17:59:49;;;;;;;9.30;3.80;;;;;;;4.74;78.67;99371.73;208550;1293;235711;-66
2023/01/05 18:04:55;;;;;;;17.10;6.10;;;;;;;4.69;78.65;99382.86;210917;1295;139913;-67
2023/01/05 18:09:58;;;;;;;25.50;9.10;;;;;;;4.68;78.60;99386.32;210619;1284;140251;-67
2023/01/05 18:15:06;;;;;;;18.90;6.00;;;;;;;4.68;78.61;99394.97;210627;1296;140968;-68
2023/01/05 18:20:12;;;;;;;20.60;6.90;;;;;;;4.71;78.60;99406.02;209220;1297;141759;-68
2023/01/05 18:25:18;;;;;;;8.30;4.60;;;;;;;4.75;78.47;99416.86;207837;1291;140692;-67
2023/01/05 18:30:22;;;;;;;5.10;2.90;;;;;;;4.72;78.64;99427.66;208603;1290;140235;-67
2023/01/05 18:35:25;;;;;;;2.30;2.00;;;;;;;4.67;78.50;99436.23;208992;1296;140718;-67
2023/01/05 18:40:30;;;;;;;3.30;2.50;;;;;;;4.65;78.42;99450.77;209766;1292;140908;-65
2023/01/05 18:45:35;;;;;;;3.80;2.70;;;;;;;4.63;78.42;99455.52;209734;1295;138942;-66
2023/01/05 18:50:48;;;;;;;5.80;2.10;;;;;;;4.61;78.53;99471.52;209053;1291;139294;-67
2023/01/05 18:55:54;;;;;;;3.20;1.80;;;;;;;4.60;78.82;99479.50;208181;1300;142363;-67
2023/01/05 19:01:01;;;;;;;4.00;2.10;;;;;;;4.53;78.74;99487.59;207963;1292;138752;-67
2023/01/05 19:06:14;;;;;;;3.60;2.30;;;;;;;4.52;78.83;99501.26;208517;1301;139737;-67
2023/01/05 19:11:26;;;;;;;3.00;2.30;;;;;;;4.53;78.92;99503.38;209084;1290;140007;-67
2023/01/05 19:16:34;;;;;;;2.20;1.80;;;;;;;4.51;78.75;99515.88;209375;1293;139118;-66
2023/01/05 19:21:40;;;;;;;2.60;2.20;;;;;;;4.48;78.83;99527.29;208828;1300;141280;-66
2023/01/05 19:26:45;;;;;;;4.30;2.70;;;;;;;4.51;79.04;99536.14;209124;1288;141214;-67
2023/01/05 19:31:48;;;;;;;4.80;2.60;;;;;;;4.47;79.04;99546.77;209389;1291;139270;-68
2023/01/05 19:36:51;;;;;;;3.10;2.10;;;;;;;4.43;78.96;99554.92;209687;1295;139450;-67
2023/01/05 19:41:54;;;;;;;3.50;2.20;;;;;;;4.43;79.02;99563.20;210182;1278;140475;-67
2023/01/05 19:46:57;;;;;;;5.50;3.30;;;;;;;4.44;79.39;99570.30;208801;1295;139926;-66
2023/01/05 19:51:59;;;;;;;5.80;2.60;;;;;;;4.37;79.23;99573.29;209198;1293;142331;-67
2023/01/05 19:57:02;;;;;;;2.50;2.20;;;;;;;4.34;79.20;99586.35;210557;1294;139603;-67
2023/01/05 20:02:05;;;;;;;3.10;2.00;;;;;;;4.31;79.48;99589.14;210561;1293;140130;-68
2023/01/05 20:07:10;;;;;;;4.40;2.60;;;;;;;4.30;79.45;99599.00;210574;1287;138988;-66
2023/01/05 20:12:14;;;;;;;4.70;2.50;;;;;;;4.35;79.44;99607.83;210639;1284;139700;-67
2023/01/05 20:17:18;;;;;;;2.70;2.40;;;;;;;4.35;79.56;99622.57;209148;1291;162605;-67
2023/01/05 20:22:23;;;;;;;5.20;2.60;;;;;;;4.32;79.86;99637.61;208663;1289;139593;-67
2023/01/05 20:27:26;;;;;;;4.20;2.70;;;;;;;4.33;79.71;99652.96;208531;1284;139375;-67
2023/01/05 20:32:35;;;;;;;2.60;2.20;;;;;;;4.33;79.99;99662.47;209728;1291;153196;-67
2023/01/05 20:37:40;;;;;;;4.50;2.30;;;;;;;4.26;80.20;99674.83;210371;1298;451144;-67
2023/01/05 20:42:43;;;;;;;2.40;2.20;;;;;;;4.20;80.35;99686.29;208004;1293;142725;-66
2023/01/05 20:47:47;;;;;;;3.30;2.70;;;;;;;4.21;80.34;99694.13;209691;1294;143731;-66
2023/01/05 20:52:50;;;;;;;4.80;2.60;;;;;;;4.20;80.51;99706.45;208554;1292;142135;-67
2023/01/05 20:57:53;;;;;;;2.90;2.70;;;;;;;4.19;80.63;99714.61;208411;1293;141093;-66
2023/01/05 21:02:55;;;;;;;3.50;2.20;;;;;;;4.17;80.79;99719.23;208483;1287;237653;-66
2023/01/05 21:08:01;;;;;;;4.60;2.10;;;;;;;4.16;80.82;99729.89;208356;1288;141385;-67
2023/01/05 21:13:07;;;;;;;3.20;2.10;;;;;;;4.09;80.94;99739.58;208445;1292;140286;-66
2023/01/05 21:18:32;;;;;;;4.70;2.80;;;;;;;4.06;81.10;99750.84;208260;1294;140787;-66
2023/01/05 21:23:37;;;;;;;7.30;2.50;;;;;;;4.12;81.12;99759.05;209113;1292;140228;-67
2023/01/05 21:28:43;;;;;;;3.60;2.80;;;;;;;4.13;81.05;99765.63;209178;1292;139758;-67
2023/01/05 21:33:48;;;;;;;5.50;2.50;;;;;;;4.06;80.96;99782.81;208368;1292;140194;-66
2023/01/05 21:39:01;;;;;;;3.40;2.50;;;;;;;4.08;81.22;99790.58;209168;1292;138910;-67
2023/01/05 21:44:11;;;;;;;4.30;3.10;;;;;;;4.08;81.22;99800.94;210209;1292;140890;-66
2023/01/05 21:49:22;;;;;;;3.90;3.10;;;;;;;4.07;81.33;99805.10;210124;1291;139095;-66
2023/01/05 21:59:53;;;;;;;4.20;2.50;;;;;;;4.14;81.01;99824.85;210608;1294;139740;-67
2023/01/05 22:04:57;;;;;;;3.10;2.20;;;;;;;4.13;81.02;99834.26;210127;1285;139101;-67
2023/01/05 22:10:02;;;;;;;2.30;2.10;;;;;;;4.13;80.84;99844.28;210527;1285;140285;-67
2023/01/05 22:15:11;;;;;;;4.00;2.20;;;;;;;4.15;80.65;99850.80;210213;1294;138861;-67
2023/01/05 22:20:19;;;;;;;2.10;1.90;;;;;;;4.14;80.50;99856.39;209560;1291;140497;-66
2023/01/05 22:25:28;;;;;;;4.00;3.40;;;;;;;4.13;80.47;99866.36;208725;1292;140682;-67
2023/01/05 22:30:35;;;;;;;2.90;2.70;;;;;;;4.16;80.55;99874.10;207721;1292;139850;-67
2023/01/05 22:35:41;;;;;;;2.70;2.50;;;;;;;4.15;80.48;99886.95;208484;1291;139769;-67
2023/01/05 22:40:53;;;;;;;2.90;2.60;;;;;;;4.09;80.26;99900.69;208118;1284;138734;-67
2023/01/05 22:46:04;;;;;;;3.00;2.70;;;;;;;4.09;80.16;99919.81;208741;1291;139174;-67
2023/01/05 22:51:16;;;;;;;3.50;2.00;;;;;;;4.03;79.94;99923.73;208199;1281;139418;-66
2023/01/05 22:56:26;;;;;;;3.00;2.00;;;;;;;3.96;79.86;99937.92;207941;1295;139206;-67
2023/01/05 23:01:37;;;;;;;2.80;2.50;;;;;;;3.95;79.81;99951.45;209197;1292;139959;-67
2023/01/05 23:06:42;;;;;;;3.60;2.40;;;;;;;3.93;79.89;99965.10;209137;1285;231754;-67
2023/01/05 23:11:47;;;;;;;4.00;2.60;;;;;;;3.89;79.74;99973.66;208862;1284;139368;-67
2023/01/05 23:16:51;;;;;;;6.50;3.80;;;;;;;3.90;79.73;99984.42;209768;1285;139313;-67
2023/01/05 23:21:56;;;;;;;2.70;2.20;;;;;;;3.89;79.72;99997.20;208172;1286;139803;-67
2023/01/05 23:26:59;;;;;;;2.50;2.30;;;;;;;3.87;79.80;100004.48;209221;1284;140671;-66
2023/01/05 23:32:03;;;;;;;3.00;2.70;;;;;;;3.85;79.59;100003.18;208081;1294;140351;-67
2023/01/05 23:37:06;;;;;;;4.20;2.90;;;;;;;3.86;79.46;100004.66;209218;1281;141975;-66
2023/01/05 23:42:42;;;;;;;4.30;3.70;;;;;;;3.81;79.51;100014.82;209238;1292;247024;-66
2023/01/05 23:47:32;;;;;;;4.20;2.80;;;;;;;3.79;79.42;100020.27;208766;1289;140175;-66
2023/01/05 23:52:36;;;;;;;3.50;2.90;;;;;;;3.79;79.35;100029.71;209417;1294;139851;-66
2023/01/05 23:57:39;;;;;;;7.00;4.00;;;;;;;3.76;79.31;100032.39;210707;1296;139616;-67
